createdAt,value
2022-10-19T00:01:22.324Z,99178.31
2022-10-19T00:03:54.695Z,99181.88
2022-10-19T00:06:26.342Z,99181.19
2022-10-19T00:08:56.724Z,99181.03
2022-10-19T00:11:27.483Z,99179.78
2022-10-19T00:13:57.176Z,99182.06
2022-10-19T00:16:28.282Z,99185.94
2022-10-19T00:18:58.368Z,99183.34
2022-10-19T00:21:26.836Z,99191.16
2022-10-19T00:23:55.283Z,99187.72
2022-10-19T00:26:24.134Z,99185.44
2022-10-19T00:28:57.123Z,99188.16
2022-10-19T00:31:26.495Z,99178.91
2022-10-19T00:33:57.127Z,99191.25
2022-10-19T00:36:28.289Z,99191.50
2022-10-19T00:38:58.071Z,99182.28
2022-10-19T00:41:30.213Z,99190.25
2022-10-19T00:44:04.606Z,99184.31
2022-10-19T00:46:36.101Z,99188.66
2022-10-19T00:49:10.812Z,99185.22
2022-10-19T00:51:45.084Z,99178.19
2022-10-19T00:54:14.082Z,99189.31
2022-10-19T00:56:45.732Z,99184.38
2022-10-19T00:59:18.232Z,99183.41
2022-10-19T01:01:48.123Z,99191.19
2022-10-19T01:04:17.135Z,99192.13
2022-10-19T01:06:45.346Z,99191.25
2022-10-19T01:09:14.034Z,99183.56
2022-10-19T01:11:51.736Z,99192.97
2022-10-19T01:14:36.470Z,99191.25
2022-10-19T01:17:16.190Z,99193.84
2022-10-19T01:20:19.079Z,99186.00
2022-10-19T01:23:10.275Z,99187.66
2022-10-19T01:25:52.825Z,99179.69
2022-10-19T01:28:38.176Z,99174.50
2022-10-19T01:31:19.768Z,99177.00
2022-10-19T01:33:55.591Z,99179.69
2022-10-19T01:36:29.920Z,99165.03
2022-10-19T01:39:07.331Z,99166.69
2022-10-19T01:41:47.028Z,99170.03
2022-10-19T01:44:19.711Z,99161.66
2022-10-19T01:46:56.018Z,99160.72
2022-10-19T01:49:30.793Z,99155.72
2022-10-19T01:52:02.985Z,99155.88
2022-10-19T01:54:37.457Z,99150.69
2022-10-19T01:57:09.481Z,99159.16
2022-10-19T01:59:38.902Z,99146.38
2022-10-19T02:02:11.797Z,99146.38
2022-10-19T02:04:42.158Z,99148.09
2022-10-19T02:07:12.253Z,99140.28
2022-10-19T02:09:40.656Z,99137.69
2022-10-19T02:12:12.176Z,99136.75
2022-10-19T02:14:45.551Z,99137.59
2022-10-19T02:17:18.584Z,99134.31
2022-10-19T02:19:46.849Z,99141.19
2022-10-19T02:22:15.315Z,99133.59
2022-10-19T02:24:43.572Z,99136.19
2022-10-19T02:27:12.144Z,99135.25
2022-10-19T02:29:41.146Z,99127.47
2022-10-19T02:32:11.794Z,99119.56
2022-10-19T02:34:41.672Z,99118.72
2022-10-19T02:37:10.158Z,99124.88
2022-10-19T02:39:39.373Z,99115.19
2022-10-19T02:42:13.147Z,99114.47
2022-10-19T02:44:47.442Z,99120.59
2022-10-19T02:47:20.444Z,99118.91
2022-10-19T02:49:50.490Z,99117.22
2022-10-19T02:52:19.056Z,99119.09
2022-10-19T02:54:47.484Z,99117.31
2022-10-19T02:57:19.191Z,99112.13
2022-10-19T02:59:48.017Z,99116.56
2022-10-19T03:02:17.568Z,99101.06
2022-10-19T03:07:20.785Z,99106.31
2022-10-19T03:09:49.717Z,99108.19
2022-10-19T03:12:18.529Z,99103.41
2022-10-19T03:14:46.827Z,99108.53
2022-10-19T03:17:15.129Z,99104.16
2022-10-19T03:19:43.419Z,99106.16
2022-10-19T03:22:11.680Z,99099.44
2022-10-19T03:24:41.363Z,99095.44
2022-10-19T03:27:09.745Z,99103.13
2022-10-19T03:29:38.010Z,99083.44
2022-10-19T03:32:06.569Z,99081.94
2022-10-19T03:34:34.897Z,99088.75
2022-10-19T03:37:03.299Z,99083.53
2022-10-19T03:39:31.470Z,99086.88
2022-10-19T03:42:01.562Z,99087.72
2022-10-19T03:44:30.153Z,99084.19
2022-10-19T03:46:58.631Z,99092.91
2022-10-19T03:49:26.888Z,99090.41
2022-10-19T03:51:55.330Z,99086.31
2022-10-19T03:54:26.547Z,99079.50
2022-10-19T03:56:55.845Z,99074.31
2022-10-19T03:59:25.523Z,99079.50
2022-10-19T04:01:53.826Z,99084.63
2022-10-19T04:04:22.409Z,99086.31
2022-10-19T04:06:53.452Z,99086.97
2022-10-19T04:09:24.820Z,99077.31
2022-10-19T04:11:53.457Z,99090.16
2022-10-19T04:14:32.136Z,99089.16
2022-10-19T04:17:03.639Z,99081.34
2022-10-19T04:19:32.184Z,99086.72
2022-10-19T04:22:00.593Z,99077.41
2022-10-19T04:24:29.511Z,99083.72
2022-10-19T04:26:58.127Z,99081.28
2022-10-19T04:29:29.943Z,99082.38
2022-10-19T04:32:00.036Z,99086.72
2022-10-19T04:34:29.668Z,99087.56
2022-10-19T04:36:59.350Z,99088.41
2022-10-19T04:39:27.890Z,99095.25
2022-10-19T04:41:56.318Z,99091.75
2022-10-19T04:44:24.871Z,99092.59
2022-10-19T04:46:53.236Z,99092.66
2022-10-19T04:49:22.545Z,99100.44
2022-10-19T04:51:52.136Z,99088.41
2022-10-19T04:54:20.508Z,99082.28
2022-10-19T04:56:48.758Z,99089.31
2022-10-19T04:59:17.279Z,99093.75
2022-10-19T05:01:47.319Z,99089.38
2022-10-19T05:04:15.897Z,99090.25
2022-10-19T05:06:44.220Z,99086.06
2022-10-19T05:09:14.158Z,99084.44
2022-10-19T05:11:42.488Z,99087.22
2022-10-19T05:14:10.849Z,99082.22
2022-10-19T05:16:40.376Z,99080.69
2022-10-19T05:19:08.823Z,99091.16
2022-10-19T05:21:37.210Z,99087.81
2022-10-19T05:24:05.705Z,99086.97
2022-10-19T05:26:35.492Z,99081.00
2022-10-19T05:29:04.681Z,99081.94
2022-10-19T05:31:35.115Z,99081.94
2022-10-19T05:34:05.152Z,99089.72
2022-10-19T05:36:36.780Z,99081.13
2022-10-19T05:39:08.154Z,99084.53
2022-10-19T05:41:37.945Z,99079.19
2022-10-19T05:44:07.287Z,99079.00
2022-10-19T05:46:36.103Z,99085.88
2022-10-19T05:49:04.625Z,99081.34
2022-10-19T05:51:33.169Z,99077.69
2022-10-19T05:54:01.435Z,99083.88
2022-10-19T05:56:32.517Z,99084.63
2022-10-19T05:59:06.329Z,99074.31
2022-10-19T06:01:35.877Z,99079.41
2022-10-19T06:04:07.034Z,99085.47
2022-10-19T06:06:35.548Z,99089.81
2022-10-19T06:09:04.889Z,99090.00
2022-10-19T06:11:37.295Z,99096.19
2022-10-19T06:14:10.483Z,99100.28
2022-10-19T06:16:39.034Z,99101.28
2022-10-19T06:19:07.737Z,99108.19
2022-10-19T06:21:36.201Z,99098.53
2022-10-19T06:24:06.718Z,99094.25
2022-10-19T06:26:36.632Z,99091.72
2022-10-19T06:29:06.868Z,99096.09
2022-10-19T06:31:37.258Z,99094.50
2022-10-19T06:34:05.974Z,99104.81
2022-10-19T06:36:35.046Z,99103.88
2022-10-19T06:39:03.542Z,99102.22
2022-10-19T06:41:32.767Z,99103.13
2022-10-19T06:44:19.707Z,99107.41
2022-10-19T06:46:48.151Z,99109.16
2022-10-19T06:49:16.714Z,99105.63
2022-10-19T06:51:45.113Z,99103.13
2022-10-19T06:54:13.678Z,99108.25
2022-10-19T06:56:41.951Z,99098.69
2022-10-19T06:59:12.445Z,99109.06
2022-10-19T07:01:42.161Z,99099.63
2022-10-19T07:04:10.454Z,99097.19
2022-10-19T07:06:39.098Z,99100.19
2022-10-19T07:09:07.526Z,99096.44
2022-10-19T07:11:35.947Z,99104.13
2022-10-19T07:14:04.382Z,99102.47
2022-10-19T07:16:33.072Z,99115.38
2022-10-19T07:19:02.741Z,99103.47
2022-10-19T07:21:31.058Z,99104.50
2022-10-19T07:23:59.581Z,99104.50
2022-10-19T07:26:30.556Z,99108.06
2022-10-19T07:28:59.220Z,99106.31
2022-10-19T07:31:29.094Z,99115.03
2022-10-19T07:33:59.328Z,99118.38
2022-10-19T07:36:31.305Z,99116.53
2022-10-19T07:38:59.769Z,99113.03
2022-10-19T07:41:28.333Z,99118.06
2022-10-19T07:43:57.890Z,99120.56
2022-10-19T07:46:29.431Z,99120.50
2022-10-19T07:48:57.900Z,99120.34
2022-10-19T07:54:01.492Z,99114.53
2022-10-19T07:56:30.060Z,99107.41
2022-10-19T07:59:01.132Z,99108.91
2022-10-19T08:01:31.957Z,99116.72
2022-10-19T08:06:51.413Z,99106.69
2022-10-19T08:09:47.175Z,99112.41
2022-10-19T08:12:12.472Z,99107.00
2022-10-19T08:14:42.474Z,99112.88
2022-10-19T08:17:16.729Z,99112.88
2022-10-19T08:19:45.360Z,99113.53
2022-10-19T08:22:15.126Z,99109.00
2022-10-19T08:24:43.434Z,99111.53
2022-10-19T08:27:11.791Z,99110.50
2022-10-19T08:29:40.141Z,99108.56
2022-10-19T08:32:08.356Z,99095.47
2022-10-19T08:34:36.632Z,99103.09
2022-10-19T08:37:14.666Z,99103.09
2022-10-19T08:39:55.018Z,99103.88
2022-10-19T08:42:31.125Z,99100.22
2022-10-19T08:45:27.249Z,99104.44
2022-10-19T08:48:21.465Z,99107.78
2022-10-19T08:50:50.362Z,99108.47
2022-10-19T08:53:25.005Z,99112.72
2022-10-19T08:56:08.550Z,99113.56
2022-10-19T08:58:57.524Z,99116.06
2022-10-19T09:01:38.585Z,99105.41
2022-10-19T09:04:16.331Z,99096.84
2022-10-19T09:06:58.082Z,99108.09
2022-10-19T09:09:30.063Z,99109.59
2022-10-19T09:12:06.012Z,99105.31
2022-10-19T09:14:39.820Z,99101.72
2022-10-19T09:17:13.892Z,99099.19
2022-10-19T09:19:42.470Z,99093.81
2022-10-19T09:22:20.953Z,99090.19
2022-10-19T09:24:52.682Z,99079.69
2022-10-19T09:27:26.517Z,99089.81
2022-10-19T09:29:57.558Z,99092.06
2022-10-19T09:32:31.498Z,99095.50
2022-10-19T09:35:03.275Z,99084.16
2022-10-19T09:37:33.381Z,99084.75
2022-10-19T09:40:01.663Z,99086.97
2022-10-19T09:42:34.585Z,99091.25
2022-10-19T09:45:14.521Z,99094.31
2022-10-19T09:47:44.063Z,99081.03
2022-10-19T09:50:21.716Z,99083.63
2022-10-19T09:52:51.171Z,99082.72
2022-10-19T09:55:27.924Z,99077.13
2022-10-19T09:58:11.628Z,99079.19
2022-10-19T10:00:43.157Z,99087.53
2022-10-19T10:03:27.075Z,99086.34
2022-10-19T10:05:57.275Z,99092.44
2022-10-19T10:08:29.248Z,99088.88
2022-10-19T10:11:07.715Z,99079.44
2022-10-19T10:13:43.849Z,99079.31
2022-10-19T10:16:16.336Z,99083.50
2022-10-19T10:18:55.048Z,99079.31
2022-10-19T10:21:26.207Z,99076.94
2022-10-19T10:24:06.330Z,99072.56
2022-10-19T10:26:42.088Z,99076.53
2022-10-19T10:29:25.116Z,99072.91
2022-10-19T10:31:57.074Z,99075.75
2022-10-19T10:34:50.140Z,99071.50
2022-10-19T10:37:23.847Z,99068.19
2022-10-19T10:39:55.765Z,99061.19
2022-10-19T10:42:31.374Z,99058.41
2022-10-19T10:45:01.950Z,99053.81
2022-10-19T10:47:32.858Z,99051.22
2022-10-19T10:50:06.398Z,99049.38
2022-10-19T10:52:37.210Z,99047.22
2022-10-19T10:55:19.022Z,99046.09
2022-10-19T10:57:51.067Z,99040.91
2022-10-19T11:00:24.156Z,99037.88
2022-10-19T11:02:59.750Z,99029.06
2022-10-19T11:05:32.856Z,99034.72
2022-10-19T11:08:13.512Z,99034.50
2022-10-19T11:10:48.707Z,99033.31
2022-10-19T11:13:23.697Z,99027.91
2022-10-19T11:15:57.236Z,99025.19
2022-10-19T11:18:30.922Z,99028.44
2022-10-19T11:21:06.977Z,99031.69
2022-10-19T11:23:52.260Z,99023.75
2022-10-19T11:26:36.565Z,99015.69
2022-10-19T11:29:28.909Z,99001.78
2022-10-19T11:31:59.312Z,98999.09
2022-10-19T11:34:50.841Z,99000.94
2022-10-19T11:37:30.503Z,98989.63
2022-10-19T11:40:13.844Z,98991.91
2022-10-19T11:42:55.791Z,98991.63
2022-10-19T11:45:40.120Z,98978.28
2022-10-19T11:48:43.814Z,98972.75
2022-10-19T11:51:22.269Z,98971.53
2022-10-19T11:54:07.507Z,98960.50
2022-10-19T11:57:02.251Z,98952.50
2022-10-19T11:59:48.299Z,98953.66
2022-10-19T12:02:51.890Z,98957.00
2022-10-19T12:05:26.455Z,98952.31
2022-10-19T12:08:13.312Z,98947.31
2022-10-19T12:10:48.312Z,98949.28
2022-10-19T12:13:21.237Z,98944.91
2022-10-19T12:15:53.913Z,98945.03
2022-10-19T12:18:30.913Z,98944.16
2022-10-19T12:21:05.768Z,98946.56
2022-10-19T12:23:35.987Z,98943.94
2022-10-19T12:26:08.991Z,98933.31
2022-10-19T12:28:42.049Z,98931.44
2022-10-19T12:31:12.150Z,98927.41
2022-10-19T12:33:48.925Z,98927.25
2022-10-19T12:36:33.207Z,98912.34
2022-10-19T12:39:11.344Z,98916.72
2022-10-19T12:41:47.080Z,98912.28
2022-10-19T12:44:43.763Z,98904.63
2022-10-19T12:47:17.033Z,98907.78
2022-10-19T12:49:48.866Z,98905.63
2022-10-19T12:52:38.999Z,98901.09
2022-10-19T12:55:27.727Z,98896.56
2022-10-19T12:58:04.116Z,98893.66
2022-10-19T13:00:36.097Z,98894.25
2022-10-19T13:03:07.900Z,98884.47
2022-10-19T13:05:37.185Z,98879.44
2022-10-19T13:08:12.071Z,98878.69
2022-10-19T13:10:42.811Z,98872.31
2022-10-19T13:14:01.483Z,98874.78
2022-10-19T13:17:03.733Z,98875.91
2022-10-19T13:19:32.479Z,98860.44
2022-10-19T13:22:28.101Z,98864.50
2022-10-19T13:25:30.685Z,98870.84
2022-10-19T13:28:23.392Z,98863.16
2022-10-19T13:31:07.100Z,98864.06
2022-10-19T13:33:48.524Z,98862.06
2022-10-19T13:36:17.479Z,98850.28
2022-10-19T13:38:48.782Z,98845.44
2022-10-19T13:41:21.950Z,98844.34
2022-10-19T13:44:04.879Z,98845.31
2022-10-19T13:46:52.155Z,98850.88
2022-10-19T13:49:57.052Z,98838.03
2022-10-19T13:53:09.088Z,98833.41
2022-10-19T13:56:26.902Z,98832.19
2022-10-19T13:59:28.764Z,98827.84
2022-10-19T14:02:32.354Z,98821.47
2022-10-19T14:05:22.953Z,98817.94
2022-10-19T14:08:04.663Z,98815.34
2022-10-19T14:10:56.267Z,98807.19
2022-10-19T14:13:24.257Z,98804.75
2022-10-19T14:15:55.595Z,98799.28
2022-10-19T14:18:26.277Z,98789.47
2022-10-19T14:20:59.841Z,98792.91
2022-10-19T14:23:30.650Z,98793.75
2022-10-19T14:26:01.920Z,98792.59
2022-10-19T14:28:33.215Z,98776.97
2022-10-19T14:31:04.517Z,98776.66
2022-10-19T14:33:37.803Z,98773.50
2022-10-19T14:36:08.468Z,98769.22
2022-10-19T14:38:43.331Z,98767.97
2022-10-19T14:41:22.290Z,98761.59
2022-10-19T14:43:51.965Z,98773.13
2022-10-19T14:46:20.432Z,98778.25
2022-10-19T14:48:50.844Z,98775.34
2022-10-19T14:51:36.300Z,98771.63
2022-10-19T14:54:08.640Z,98770.50
2022-10-19T14:56:44.036Z,98772.03
2022-10-19T14:59:26.132Z,98766.34
2022-10-19T15:01:57.141Z,98762.75
2022-10-19T15:04:29.845Z,98759.84
2022-10-19T15:07:00.209Z,98757.06
2022-10-19T15:09:47.894Z,98755.00
2022-10-19T15:12:20.820Z,98758.88
2022-10-19T15:14:50.822Z,98763.31
2022-10-19T15:17:26.883Z,98755.31
2022-10-19T15:19:56.311Z,98759.72
2022-10-19T15:22:40.536Z,98758.06
2022-10-19T15:25:35.490Z,98754.16
2022-10-19T15:28:36.022Z,98754.00
2022-10-19T15:31:17.683Z,98750.81
2022-10-19T15:33:51.064Z,98750.69
2022-10-19T15:36:21.358Z,98747.75
2022-10-19T15:39:11.537Z,98751.91
2022-10-19T15:41:49.038Z,98741.94
2022-10-19T15:44:34.010Z,98748.84
2022-10-19T15:47:23.238Z,98747.16
2022-10-19T15:49:58.521Z,98732.59
2022-10-19T15:52:28.649Z,98733.22
2022-10-19T15:54:59.304Z,98739.78
2022-10-19T15:57:32.149Z,98741.47
2022-10-19T16:00:03.283Z,98735.66
2022-10-19T16:02:33.801Z,98742.31
2022-10-19T16:05:02.271Z,98733.81
2022-10-19T16:07:34.008Z,98736.72
2022-10-19T16:10:02.679Z,98732.94
2022-10-19T16:12:31.132Z,98731.38
2022-10-19T16:14:59.438Z,98732.59
2022-10-19T16:17:28.804Z,98729.91
2022-10-19T16:19:58.774Z,98726.97
2022-10-19T16:22:27.265Z,98725.94
2022-10-19T16:24:55.597Z,98719.31
2022-10-19T16:27:24.265Z,98728.88
2022-10-19T16:29:52.470Z,98733.06
2022-10-19T16:32:20.867Z,98737.03
2022-10-19T16:34:49.110Z,98735.03
2022-10-19T16:37:18.893Z,98735.53
2022-10-19T16:39:47.125Z,98729.84
2022-10-19T16:42:15.524Z,98731.88
2022-10-19T16:44:44.708Z,98729.06
2022-10-19T16:47:13.853Z,98727.88
2022-10-19T16:49:42.178Z,98723.22
2022-10-19T16:52:14.399Z,98731.31
2022-10-19T16:54:44.199Z,98732.06
2022-10-19T16:57:12.449Z,98729.25
2022-10-19T16:59:40.866Z,98729.59
2022-10-19T17:02:10.845Z,98737.81
2022-10-19T17:04:39.401Z,98733.06
2022-10-19T17:07:07.915Z,98735.19
2022-10-19T17:09:41.748Z,98732.34
2022-10-19T17:12:12.752Z,98729.38
2022-10-19T17:14:43.291Z,98738.75
2022-10-19T17:17:12.854Z,98732.34
2022-10-19T17:19:41.433Z,98728.19
2022-10-19T17:22:09.794Z,98733.06
2022-10-19T17:24:39.271Z,98733.53
2022-10-19T17:27:08.142Z,98733.28
2022-10-19T17:29:37.865Z,98735.78
2022-10-19T17:32:06.712Z,98728.53
2022-10-19T17:34:35.265Z,98728.06
2022-10-19T17:37:03.651Z,98726.72
2022-10-19T17:39:32.111Z,98725.16
2022-10-19T17:42:01.816Z,98732.44
2022-10-19T17:44:31.799Z,98729.44
2022-10-19T17:47:02.359Z,98730.81
2022-10-19T17:49:30.920Z,98726.91
2022-10-19T17:51:59.516Z,98731.00
2022-10-19T17:54:27.894Z,98737.41
2022-10-19T17:56:56.252Z,98732.75
2022-10-19T17:59:34.765Z,98736.66
2022-10-19T18:02:07.387Z,98738.75
2022-10-19T18:07:03.910Z,98740.25
2022-10-19T18:09:32.268Z,98742.97
2022-10-19T18:12:04.785Z,98746.03
2022-10-19T18:14:36.397Z,98748.84
2022-10-19T18:17:06.760Z,98746.78
2022-10-19T18:19:35.006Z,98750.91
2022-10-19T18:22:03.434Z,98751.56
2022-10-19T18:24:32.903Z,98755.53
2022-10-19T18:27:01.455Z,98752.66
2022-10-19T18:29:30.021Z,98749.38
2022-10-19T18:31:58.701Z,98749.59
2022-10-19T18:34:28.917Z,98748.97
2022-10-19T18:36:57.556Z,98747.31
2022-10-19T18:39:26.106Z,98738.03
2022-10-19T18:41:55.195Z,98734.69
2022-10-19T18:44:26.613Z,98730.44
2022-10-19T18:46:56.927Z,98730.66
2022-10-19T18:49:25.601Z,98730.03
2022-10-19T18:51:56.088Z,98734.94
2022-10-19T18:54:26.111Z,98728.91
2022-10-19T18:56:54.680Z,98722.75
2022-10-19T18:59:23.043Z,98723.69
2022-10-19T19:01:51.427Z,98717.97
2022-10-19T19:04:19.841Z,98720.16
2022-10-19T19:06:48.293Z,98714.44
2022-10-19T19:09:18.852Z,98715.47
2022-10-19T19:11:47.292Z,98709.75
2022-10-19T19:14:21.052Z,98709.97
2022-10-19T19:16:49.790Z,98714.66
2022-10-19T19:19:19.960Z,98710.81
2022-10-19T19:21:49.811Z,98708.41
2022-10-19T19:24:22.152Z,98709.53
2022-10-19T19:26:53.959Z,98699.44
2022-10-19T19:29:23.168Z,98703.19
2022-10-19T19:31:51.819Z,98701.63
2022-10-19T19:34:20.769Z,98701.09
2022-10-19T19:36:49.430Z,98701.19
2022-10-19T19:39:21.756Z,98704.94
2022-10-19T19:41:51.172Z,98702.56
2022-10-19T19:44:20.018Z,98702.81
2022-10-19T19:46:48.687Z,98696.16
2022-10-19T19:49:17.334Z,98693.78
2022-10-19T19:51:45.736Z,98693.03
2022-10-19T19:54:14.191Z,98688.75
2022-10-19T19:56:43.774Z,98688.03
2022-10-19T19:59:14.101Z,98692.50
2022-10-19T20:01:43.284Z,98687.31
2022-10-19T20:04:12.034Z,98681.56
2022-10-19T20:06:41.576Z,98682.06
2022-10-19T20:09:11.317Z,98676.25
2022-10-19T20:11:42.780Z,98677.47
2022-10-19T20:14:12.931Z,98677.78
2022-10-19T20:16:41.408Z,98672.88
2022-10-19T20:19:12.680Z,98677.44
2022-10-19T20:21:41.812Z,98673.47
2022-10-19T20:24:11.058Z,98672.09
2022-10-19T20:26:39.420Z,98667.84
2022-10-19T20:29:07.796Z,98669.88
2022-10-19T20:31:40.347Z,98672.16
2022-10-19T20:34:10.984Z,98667.13
2022-10-19T20:36:39.787Z,98660.91
2022-10-19T20:39:08.654Z,98663.28
2022-10-19T20:41:37.655Z,98661.72
2022-10-19T20:44:06.350Z,98666.44
2022-10-19T20:46:35.084Z,98656.34
2022-10-19T20:49:04.960Z,98661.66
2022-10-19T20:51:36.804Z,98656.84
2022-10-19T20:54:08.224Z,98650.81
2022-10-19T20:56:38.790Z,98646.56
2022-10-19T20:59:09.301Z,98642.25
2022-10-19T21:01:40.603Z,98645.81
2022-10-19T21:04:13.796Z,98641.81
2022-10-19T21:06:44.245Z,98648.84
2022-10-19T21:09:14.615Z,98659.53
2022-10-19T21:11:44.873Z,98665.84
2022-10-19T21:14:17.554Z,98657.31
2022-10-19T21:16:46.058Z,98664.25
2022-10-19T21:19:18.406Z,98653.97
2022-10-19T21:21:49.262Z,98662.06
2022-10-19T21:24:20.886Z,98656.88
2022-10-19T21:26:49.776Z,98656.03
2022-10-19T21:29:19.023Z,98656.03
2022-10-19T21:31:50.229Z,98657.22
2022-10-19T21:34:22.686Z,98649.81
2022-10-19T21:36:51.861Z,98660.41
2022-10-19T21:39:20.868Z,98659.75
2022-10-19T21:41:50.139Z,98656.59
2022-10-19T21:44:22.804Z,98658.34
2022-10-19T21:46:51.945Z,98658.56
2022-10-19T21:49:21.620Z,98650.03
2022-10-19T21:51:54.608Z,98648.38
2022-10-19T21:54:25.583Z,98648.66
2022-10-19T21:56:55.631Z,98644.47
2022-10-19T21:59:24.024Z,98637.78
2022-10-19T22:01:54.400Z,98633.53
2022-10-19T22:04:25.277Z,98636.19
2022-10-19T22:06:53.611Z,98630.28
2022-10-19T22:09:23.358Z,98621.03
2022-10-19T22:11:51.955Z,98617.78
2022-10-19T22:14:20.267Z,98616.19
2022-10-19T22:16:48.703Z,98617.13
2022-10-19T22:19:17.052Z,98618.41
2022-10-19T22:21:46.788Z,98616.75
2022-10-19T22:24:16.424Z,98619.59
2022-10-19T22:26:47.765Z,98616.44
2022-10-19T22:29:16.089Z,98617.66
2022-10-19T22:31:44.672Z,98622.00
2022-10-19T22:34:15.457Z,98615.31
2022-10-19T22:36:44.479Z,98620.69
2022-10-19T22:39:15.042Z,98624.31
2022-10-19T22:41:43.489Z,98620.31
2022-10-19T22:44:11.714Z,98627.44
2022-10-19T22:46:40.138Z,98619.72
2022-10-19T22:51:37.169Z,98612.88
2022-10-19T22:54:05.791Z,98610.47
2022-10-19T22:56:35.487Z,98597.50
2022-10-19T22:59:06.500Z,98597.63
2022-10-19T23:01:35.653Z,98587.47
2022-10-19T23:04:04.470Z,98592.84
2022-10-19T23:06:32.720Z,98586.81
2022-10-19T23:09:00.949Z,98587.81
2022-10-19T23:11:29.401Z,98575.97
2022-10-19T23:13:59.120Z,98572.59
2022-10-19T23:18:56.558Z,98571.31
2022-10-19T23:21:24.799Z,98581.03
2022-10-19T23:23:53.010Z,98569.16
2022-10-19T23:26:22.425Z,98562.38
2022-10-19T23:28:51.635Z,98561.72
2022-10-19T23:31:25.212Z,98551.47
2022-10-19T23:33:54.779Z,98553.41
2022-10-19T23:36:26.850Z,98549.13
2022-10-19T23:38:57.201Z,98552.63
2022-10-19T23:41:25.811Z,98547.44
2022-10-19T23:43:54.216Z,98551.16
2022-10-19T23:46:23.938Z,98556.50
2022-10-19T23:48:52.243Z,98551.50
2022-10-19T23:51:22.383Z,98552.34
2022-10-19T23:53:53.175Z,98547.22
2022-10-19T23:56:23.633Z,98551.75
2022-10-19T23:58:52.462Z,98548.31
